Keystone, Iowa
Current Conditions -  °F | °C
As of 6:35 PM on Saturday 20 Dec 2014 (Local Time) from KVTI Reporting Station
Haze Haze  
Wind Chill: 25°   Ceiling: 500
Heat Index: 33°   Visibility: 2mi
Dew Point: 31°   Wind: 9mph
Humidity: 94%   Direction: 140°SE
Pressure: 30.17"   Gusts: NA
Location:  42°N, 92.2°W
Report Text: KVTI 210035Z AUTO 14008KT 2SM BR OVC005 00/00 A3017 RMK AO2 T00031005
Loading
Personal Weather Stations






























Interactive Weather Map New forecast layout! Learn more

10-Day Weather Forecast

Advertisements
Track Severe Weather on mobile